createdAt,value
2022-11-10T00:02:18.488Z,6.47
2022-11-10T00:05:04.116Z,6.17
2022-11-10T00:07:49.157Z,7.10
2022-11-10T00:10:56.359Z,6.30
2022-11-10T00:14:01.382Z,6.60
2022-11-10T00:17:01.840Z,6.00
2022-11-10T00:19:46.763Z,6.17
2022-11-10T00:22:31.983Z,6.53
2022-11-10T00:25:17.075Z,6.10
2022-11-10T00:28:02.287Z,6.85
2022-11-10T00:30:47.253Z,6.10
2022-11-10T00:33:34.170Z,6.50
2022-11-10T00:36:19.086Z,6.20
2022-11-10T00:39:04.046Z,6.30
2022-11-10T00:41:49.379Z,5.83
2022-11-10T00:44:34.189Z,6.13
2022-11-10T00:47:19.095Z,6.00
2022-11-10T00:50:04.087Z,5.57
2022-11-10T00:52:49.103Z,5.80
2022-11-10T00:55:36.774Z,5.50
2022-11-10T00:58:21.915Z,5.63
2022-11-10T01:01:07.264Z,5.70
2022-11-10T01:03:53.496Z,5.30
2022-11-10T01:06:38.752Z,5.97
2022-11-10T01:09:24.499Z,6.37
2022-11-10T01:12:09.413Z,5.50
2022-11-10T01:14:54.651Z,4.90
2022-11-10T01:17:39.548Z,5.50
2022-11-10T01:20:25.292Z,5.53
2022-11-10T01:23:10.393Z,5.70
2022-11-10T01:25:59.030Z,5.47
2022-11-10T01:28:44.466Z,5.10
2022-11-10T01:31:29.701Z,5.40
2022-11-10T01:34:14.900Z,5.10
2022-11-10T01:36:59.980Z,4.90
2022-11-10T01:39:44.912Z,4.90
2022-11-10T01:42:50.022Z,5.03
2022-11-10T01:45:44.144Z,4.97
2022-11-10T01:48:29.440Z,4.20
2022-11-10T01:51:17.470Z,4.90
2022-11-10T01:54:04.884Z,4.70
2022-11-10T01:56:52.066Z,5.13
2022-11-10T01:59:40.646Z,4.37
2022-11-10T02:02:28.686Z,4.60
2022-11-10T02:05:13.586Z,4.83
2022-11-10T02:07:58.610Z,5.23
2022-11-10T02:10:43.642Z,4.60
2022-11-10T02:13:28.677Z,4.50
2022-11-10T02:16:13.839Z,4.47
2022-11-10T02:19:11.579Z,4.10
2022-11-10T02:21:56.749Z,4.30
2022-11-10T02:24:41.679Z,4.57
2022-11-10T02:27:26.568Z,4.47
2022-11-10T02:30:12.102Z,4.57
2022-11-10T02:32:56.969Z,4.13
2022-11-10T02:35:41.875Z,4.43
2022-11-10T02:38:26.946Z,4.37
2022-11-10T02:41:11.754Z,4.30
2022-11-10T02:43:57.737Z,4.20
2022-11-10T02:46:42.698Z,4.30
2022-11-10T02:49:27.848Z,4.03
2022-11-10T02:52:12.766Z,4.30
2022-11-10T02:54:57.622Z,3.90
2022-11-10T02:57:42.531Z,3.80
2022-11-10T03:00:27.344Z,3.80
2022-11-10T03:03:12.204Z,3.90
2022-11-10T03:05:56.980Z,3.77
2022-11-10T03:08:42.040Z,4.00
2022-11-10T03:11:32.056Z,3.90
2022-11-10T03:14:19.446Z,3.30
2022-11-10T03:17:04.800Z,3.30
2022-11-10T03:19:50.204Z,3.40
2022-11-10T03:22:35.202Z,3.70
2022-11-10T03:25:20.330Z,3.80
2022-11-10T03:28:05.210Z,3.60
2022-11-10T03:30:50.416Z,3.50
2022-11-10T03:33:35.660Z,3.00
2022-11-10T03:36:20.832Z,3.40
2022-11-10T03:39:05.687Z,3.10
2022-11-10T03:41:51.215Z,2.90
2022-11-10T03:44:36.010Z,3.30
2022-11-10T03:47:20.854Z,3.10
2022-11-10T03:50:06.625Z,3.47
2022-11-10T03:52:52.052Z,3.03
2022-11-10T03:55:36.974Z,2.90
2022-11-10T03:58:22.128Z,2.60
2022-11-10T04:01:07.057Z,2.80
2022-11-10T04:03:52.246Z,2.57
2022-11-10T04:06:56.047Z,2.77
2022-11-10T04:09:41.200Z,2.37
2022-11-10T04:12:45.148Z,2.70
2022-11-10T04:15:42.333Z,2.50
2022-11-10T04:18:29.576Z,2.90
2022-11-10T04:21:15.032Z,2.40
2022-11-10T04:24:00.181Z,2.33
2022-11-10T04:26:45.476Z,2.40
2022-11-10T04:29:30.341Z,2.23
2022-11-10T04:32:15.332Z,2.53
2022-11-10T04:35:00.131Z,2.13
2022-11-10T04:37:46.297Z,2.17
2022-11-10T04:40:31.322Z,1.90
2022-11-10T04:43:16.068Z,2.30
2022-11-10T04:46:01.168Z,1.97
2022-11-10T04:48:46.290Z,2.00
2022-11-10T04:51:32.696Z,2.70
2022-11-10T04:54:17.675Z,2.30
2022-11-10T04:57:02.397Z,2.20
2022-11-10T04:59:47.283Z,2.00
2022-11-10T05:02:36.890Z,1.90
2022-11-10T05:05:24.201Z,1.90
2022-11-10T05:08:09.258Z,1.83
2022-11-10T05:10:54.479Z,1.70
2022-11-10T05:13:39.550Z,1.70
2022-11-10T05:16:24.329Z,1.90
2022-11-10T05:19:09.262Z,1.80
2022-11-10T05:21:54.096Z,2.40
2022-11-10T05:24:39.351Z,1.70
2022-11-10T05:27:24.197Z,2.30
2022-11-10T05:30:09.182Z,2.73
2022-11-10T05:32:54.553Z,2.23
2022-11-10T05:35:39.818Z,1.93
2022-11-10T05:38:24.744Z,1.80
2022-11-10T05:41:09.754Z,1.87
2022-11-10T05:43:54.980Z,1.70
2022-11-10T05:46:39.938Z,1.90
2022-11-10T05:49:25.180Z,1.70
2022-11-10T05:52:10.420Z,1.97
2022-11-10T05:54:58.217Z,1.77
2022-11-10T05:57:44.042Z,1.70
2022-11-10T06:00:29.911Z,2.23
2022-11-10T06:03:15.723Z,2.00
2022-11-10T06:06:01.164Z,2.13
2022-11-10T06:08:46.178Z,1.80
2022-11-10T06:11:31.369Z,1.90
2022-11-10T06:14:16.294Z,2.00
2022-11-10T06:17:01.281Z,1.70
2022-11-10T06:19:46.341Z,2.00
2022-11-10T06:22:31.594Z,1.90
2022-11-10T06:25:16.858Z,1.57
2022-11-10T06:28:02.101Z,1.70
2022-11-10T06:30:46.982Z,1.70
2022-11-10T06:33:32.274Z,1.83
2022-11-10T06:36:17.370Z,1.83
2022-11-10T06:39:02.403Z,1.63
2022-11-10T06:41:47.422Z,1.70
2022-11-10T06:44:32.349Z,2.10
2022-11-10T06:47:17.806Z,1.60
2022-11-10T06:50:03.026Z,1.83
2022-11-10T06:52:53.579Z,2.23
2022-11-10T06:55:38.563Z,1.90
2022-11-10T06:58:23.912Z,1.70
2022-11-10T07:01:08.816Z,1.60
2022-11-10T07:04:18.302Z,2.00
2022-11-10T07:06:59.260Z,1.93
2022-11-10T07:09:44.229Z,1.77
2022-11-10T07:12:29.263Z,1.80
2022-11-10T07:15:14.177Z,2.07
2022-11-10T07:17:59.090Z,1.70
2022-11-10T07:20:43.987Z,1.73
2022-11-10T07:23:28.831Z,1.97
2022-11-10T07:26:14.178Z,1.87
2022-11-10T07:28:59.163Z,1.50
2022-11-10T07:31:44.313Z,1.73
2022-11-10T07:34:29.830Z,1.80
2022-11-10T07:37:14.933Z,2.10
2022-11-10T07:39:59.865Z,2.07
2022-11-10T07:42:44.701Z,2.30
2022-11-10T07:45:29.450Z,1.60
2022-11-10T07:48:14.434Z,2.17
2022-11-10T07:50:59.647Z,1.83
2022-11-10T07:53:44.456Z,1.80
2022-11-10T07:56:29.456Z,1.97
2022-11-10T07:59:14.287Z,2.37
2022-11-10T08:01:59.251Z,2.20
2022-11-10T08:04:44.555Z,1.80
2022-11-10T08:07:29.397Z,1.60
2022-11-10T08:10:14.744Z,2.00
2022-11-10T08:13:00.514Z,1.30
2022-11-10T08:15:45.384Z,1.80
2022-11-10T08:18:35.077Z,1.73
2022-11-10T08:21:20.615Z,1.70
2022-11-10T08:24:05.592Z,1.80
2022-11-10T08:26:50.859Z,1.53
2022-11-10T08:29:35.935Z,1.57
2022-11-10T08:32:21.376Z,1.70
2022-11-10T08:35:06.620Z,1.90
2022-11-10T08:37:52.221Z,1.80
2022-11-10T08:40:37.505Z,2.13
2022-11-10T08:43:22.624Z,1.70
2022-11-10T08:46:07.964Z,1.53
2022-11-10T08:48:53.093Z,1.60
2022-11-10T08:51:39.311Z,1.50
2022-11-10T08:54:24.692Z,1.90
2022-11-10T08:57:09.426Z,2.20
2022-11-10T08:59:54.418Z,1.90
2022-11-10T09:02:39.461Z,1.60
2022-11-10T09:05:24.475Z,1.80
2022-11-10T09:08:09.761Z,1.87
2022-11-10T09:10:55.302Z,1.50
2022-11-10T09:13:40.325Z,1.80
2022-11-10T09:16:25.544Z,2.17
2022-11-10T09:19:13.158Z,1.80
2022-11-10T09:22:00.847Z,1.87
2022-11-10T09:24:45.712Z,2.00
2022-11-10T09:27:30.915Z,1.80
2022-11-10T09:30:17.905Z,2.10
2022-11-10T09:33:03.577Z,1.80
2022-11-10T09:35:48.834Z,1.70
2022-11-10T09:38:35.158Z,1.93
2022-11-10T09:41:20.295Z,1.97
2022-11-10T09:44:09.664Z,1.50
2022-11-10T09:46:54.451Z,1.80
2022-11-10T09:49:41.428Z,1.70
2022-11-10T09:52:27.613Z,1.53
2022-11-10T09:55:31.279Z,1.80
2022-11-10T09:58:16.397Z,1.70
2022-11-10T10:01:20.008Z,1.60
2022-11-10T10:04:24.350Z,1.87
2022-11-10T10:07:12.689Z,1.90
2022-11-10T10:10:03.072Z,1.57
2022-11-10T10:12:54.022Z,1.53
2022-11-10T10:15:42.501Z,1.87
2022-11-10T10:18:40.423Z,2.00
2022-11-10T10:21:28.328Z,1.87
2022-11-10T10:24:21.591Z,1.97
2022-11-10T10:27:10.427Z,2.20
2022-11-10T10:29:55.619Z,1.90
2022-11-10T10:32:41.302Z,1.63
2022-11-10T10:35:28.057Z,2.20
2022-11-10T10:38:18.555Z,1.70
2022-11-10T10:41:12.158Z,2.13
2022-11-10T10:43:58.261Z,1.60
2022-11-10T10:46:48.217Z,2.00
2022-11-10T10:49:36.869Z,2.13
2022-11-10T10:52:25.012Z,1.80
2022-11-10T10:55:12.213Z,2.07
2022-11-10T10:57:59.299Z,1.80
2022-11-10T11:00:45.279Z,1.90
2022-11-10T11:03:30.403Z,1.70
2022-11-10T11:06:15.596Z,1.60
2022-11-10T11:09:00.739Z,2.20
2022-11-10T11:11:46.520Z,1.87
2022-11-10T11:14:32.149Z,1.90
2022-11-10T11:17:22.436Z,1.80
2022-11-10T11:20:13.451Z,1.50
2022-11-10T11:23:03.300Z,1.63
2022-11-10T11:25:48.843Z,1.90
2022-11-10T11:28:45.008Z,2.13
2022-11-10T11:31:30.192Z,1.97
2022-11-10T11:34:21.380Z,1.47
2022-11-10T11:37:12.137Z,2.00
2022-11-10T11:40:12.819Z,1.70
2022-11-10T11:42:57.736Z,1.90
2022-11-10T11:45:49.350Z,2.37
2022-11-10T11:48:43.451Z,2.57
2022-11-10T11:51:34.242Z,2.37
2022-11-10T11:54:34.351Z,2.23
2022-11-10T11:57:40.225Z,1.93
2022-11-10T12:00:25.888Z,2.20
2022-11-10T12:03:25.274Z,2.13
2022-11-10T12:06:23.986Z,1.73
2022-11-10T12:09:16.196Z,1.80
2022-11-10T12:12:04.409Z,1.77
2022-11-10T12:15:12.612Z,1.70
2022-11-10T12:18:11.371Z,2.00
2022-11-10T12:20:59.508Z,1.87
2022-11-10T12:23:47.372Z,1.70
2022-11-10T12:26:39.005Z,1.90
2022-11-10T12:29:27.116Z,1.80
2022-11-10T12:32:15.059Z,1.73
2022-11-10T12:35:11.109Z,1.93
2022-11-10T12:38:01.605Z,2.23
2022-11-10T12:40:48.650Z,1.77
2022-11-10T12:43:42.779Z,1.90
2022-11-10T12:46:27.569Z,1.97
2022-11-10T12:49:12.628Z,1.87
2022-11-10T12:52:00.647Z,1.80
2022-11-10T12:54:46.049Z,1.70
2022-11-10T12:57:31.908Z,2.00
2022-11-10T13:00:28.089Z,1.87
2022-11-10T13:03:14.853Z,1.83
2022-11-10T13:06:04.428Z,1.60
2022-11-10T13:08:49.921Z,1.67
2022-11-10T13:11:35.810Z,1.57
2022-11-10T13:14:30.127Z,1.50
2022-11-10T13:17:27.505Z,4.60
2022-11-10T13:20:31.786Z,4.30
2022-11-10T13:23:23.000Z,3.87
2022-11-10T13:26:11.949Z,2.07
2022-11-10T13:28:58.656Z,1.87
2022-11-10T13:31:50.129Z,1.57
2022-11-10T13:34:35.849Z,1.90
2022-11-10T13:37:29.953Z,1.80
2022-11-10T13:40:17.911Z,1.80
2022-11-10T13:43:03.269Z,1.83
2022-11-10T13:45:48.500Z,2.03
2022-11-10T13:48:42.890Z,1.90
2022-11-10T13:51:46.862Z,2.10
2022-11-10T13:54:32.249Z,2.10
2022-11-10T13:57:20.443Z,1.50
2022-11-10T14:00:14.832Z,1.80
2022-11-10T14:03:03.270Z,1.50
2022-11-10T14:05:57.775Z,1.90
2022-11-10T14:08:44.195Z,1.80
2022-11-10T14:11:36.907Z,1.67
2022-11-10T14:14:24.618Z,1.90
2022-11-10T14:17:18.678Z,1.57
2022-11-10T14:20:04.120Z,1.77
2022-11-10T14:22:50.003Z,1.83
2022-11-10T14:25:36.821Z,1.70
2022-11-10T14:28:29.084Z,1.60
2022-11-10T14:31:22.340Z,1.80
2022-11-10T14:34:13.023Z,1.80
2022-11-10T14:36:59.018Z,1.70
2022-11-10T14:39:44.231Z,1.50
2022-11-10T14:42:33.102Z,1.80
2022-11-10T14:45:22.738Z,1.60
2022-11-10T14:48:16.464Z,2.20
2022-11-10T14:51:06.172Z,1.97
2022-11-10T14:53:52.975Z,2.37
2022-11-10T14:56:37.839Z,1.93
2022-11-10T14:59:24.396Z,1.90
2022-11-10T15:02:13.893Z,2.17
2022-11-10T15:04:58.954Z,1.93
2022-11-10T15:07:45.093Z,1.83
2022-11-10T15:10:41.965Z,1.80
2022-11-10T15:13:26.787Z,1.63
2022-11-10T15:16:27.030Z,1.87
2022-11-10T15:19:27.358Z,2.10
2022-11-10T15:22:12.583Z,1.90
2022-11-10T15:24:59.766Z,1.90
2022-11-10T15:27:55.151Z,1.87
2022-11-10T15:30:54.034Z,2.10
2022-11-10T15:33:44.793Z,2.10
2022-11-10T15:36:34.065Z,2.00
2022-11-10T15:39:23.463Z,1.90
2022-11-10T15:42:16.377Z,2.00
2022-11-10T15:45:01.454Z,2.00
2022-11-10T15:47:47.129Z,2.00
2022-11-10T15:50:32.022Z,1.90
2022-11-10T15:53:21.214Z,2.27
2022-11-10T15:56:09.504Z,2.17
2022-11-10T15:58:59.100Z,2.87
2022-11-10T16:01:47.261Z,2.43
2022-11-10T16:04:32.314Z,3.63
2022-11-10T16:07:17.796Z,4.33
2022-11-10T16:10:03.663Z,4.20
2022-11-10T16:12:48.814Z,7.33
2022-11-10T16:15:33.868Z,9.13
2022-11-10T16:18:20.725Z,9.87
2022-11-10T16:21:06.239Z,7.83
2022-11-10T16:23:51.928Z,6.93
2022-11-10T16:26:37.262Z,5.40
2022-11-10T16:29:22.543Z,5.30
2022-11-10T16:32:08.933Z,6.70
2022-11-10T16:34:55.097Z,4.77
2022-11-10T16:37:43.411Z,4.57
2022-11-10T16:40:28.247Z,3.63
2022-11-10T16:43:16.680Z,3.10
2022-11-10T16:46:03.733Z,2.77
2022-11-10T16:48:49.738Z,3.23
2022-11-10T16:51:45.600Z,2.83
2022-11-10T16:54:33.352Z,3.03
2022-11-10T16:57:20.240Z,2.60
2022-11-10T17:00:05.256Z,2.67
2022-11-10T17:02:56.777Z,2.40
2022-11-10T17:05:42.061Z,2.67
2022-11-10T17:08:31.324Z,2.67
2022-11-10T17:11:16.501Z,2.57
2022-11-10T17:14:01.635Z,2.43
2022-11-10T17:16:46.978Z,4.90
2022-11-10T17:19:31.733Z,2.67
2022-11-10T17:22:18.780Z,2.33
2022-11-10T17:25:03.918Z,2.10
2022-11-10T17:27:48.743Z,2.20
2022-11-10T17:30:33.763Z,2.70
2022-11-10T17:33:18.795Z,2.37
2022-11-10T17:36:05.142Z,2.60
2022-11-10T17:38:51.216Z,2.30
2022-11-10T17:41:36.034Z,2.50
2022-11-10T17:44:21.049Z,2.20
2022-11-10T17:47:07.653Z,2.60
2022-11-10T17:49:52.801Z,2.20
2022-11-10T17:52:37.716Z,2.90
2022-11-10T17:55:33.982Z,3.23
2022-11-10T17:58:19.620Z,2.40
2022-11-10T18:01:12.647Z,2.80
2022-11-10T18:03:57.507Z,2.87
2022-11-10T18:06:42.347Z,2.40
2022-11-10T18:09:27.315Z,2.93
2022-11-10T18:12:12.090Z,2.40
2022-11-10T18:14:56.848Z,2.40
2022-11-10T18:17:41.908Z,2.80
2022-11-10T18:20:26.947Z,2.60
2022-11-10T18:23:12.695Z,2.60
2022-11-10T18:26:02.638Z,2.70
2022-11-10T18:28:50.024Z,2.57
2022-11-10T18:31:34.901Z,2.70
2022-11-10T18:34:19.759Z,3.13
2022-11-10T18:37:04.721Z,2.70
2022-11-10T18:39:49.675Z,3.00
2022-11-10T18:42:34.585Z,3.00
2022-11-10T18:45:19.422Z,3.37
2022-11-10T18:48:04.596Z,3.47
2022-11-10T18:50:49.789Z,3.07
2022-11-10T18:53:38.290Z,3.07
2022-11-10T18:56:23.587Z,3.40
2022-11-10T18:59:08.699Z,2.80
2022-11-10T19:01:53.896Z,3.20
2022-11-10T19:04:39.648Z,3.00
2022-11-10T19:07:24.837Z,3.47
2022-11-10T19:10:09.688Z,2.90
2022-11-10T19:12:55.834Z,2.63
2022-11-10T19:15:43.750Z,2.93
2022-11-10T19:18:28.996Z,3.00
2022-11-10T19:21:18.500Z,3.13
2022-11-10T19:24:03.371Z,3.20
2022-11-10T19:26:51.947Z,3.50
2022-11-10T19:29:36.933Z,2.90
2022-11-10T19:32:24.845Z,3.10
2022-11-10T19:35:12.158Z,3.10
2022-11-10T19:37:57.235Z,3.03
2022-11-10T19:40:44.608Z,2.40
2022-11-10T19:43:29.845Z,2.60
2022-11-10T19:46:16.122Z,2.97
2022-11-10T19:49:01.018Z,3.23
2022-11-10T19:51:45.951Z,2.97
2022-11-10T19:54:30.751Z,2.77
2022-11-10T19:57:15.951Z,3.10
2022-11-10T20:00:00.710Z,3.00
2022-11-10T20:02:45.982Z,2.87
2022-11-10T20:05:31.246Z,2.63
2022-11-10T20:08:16.506Z,2.50
2022-11-10T20:11:02.387Z,2.60
2022-11-10T20:13:54.755Z,2.83
2022-11-10T20:16:40.546Z,2.97
2022-11-10T20:19:25.282Z,2.73
2022-11-10T20:22:12.707Z,3.23
2022-11-10T20:24:57.531Z,3.00
2022-11-10T20:27:42.392Z,2.80
2022-11-10T20:30:27.507Z,2.70
2022-11-10T20:33:12.800Z,2.77
2022-11-10T20:36:08.765Z,3.00
2022-11-10T20:38:54.711Z,3.60
2022-11-10T20:41:39.738Z,2.87
2022-11-10T20:44:24.792Z,3.20
2022-11-10T20:47:09.740Z,3.10
2022-11-10T20:49:54.935Z,3.40
2022-11-10T20:52:39.698Z,3.00
2022-11-10T20:55:44.025Z,2.70
2022-11-10T20:58:29.596Z,2.83
2022-11-10T21:01:15.240Z,2.60
2022-11-10T21:04:00.361Z,3.17
2022-11-10T21:06:45.202Z,3.07
2022-11-10T21:09:30.400Z,3.47
2022-11-10T21:12:34.110Z,3.27
2022-11-10T21:15:20.032Z,3.03
2022-11-10T21:18:05.139Z,3.50
2022-11-10T21:20:51.629Z,3.50
2022-11-10T21:23:36.661Z,3.00
2022-11-10T21:26:21.654Z,3.40
2022-11-10T21:29:07.913Z,3.57
2022-11-10T21:31:53.021Z,3.47
2022-11-10T21:34:38.062Z,3.67
2022-11-10T21:37:23.677Z,3.65
2022-11-10T21:40:09.051Z,3.60
2022-11-10T21:42:55.423Z,3.20
2022-11-10T21:45:40.274Z,3.67
2022-11-10T21:48:25.304Z,4.03
2022-11-10T21:51:11.086Z,3.63
2022-11-10T21:53:55.991Z,3.77
2022-11-10T21:56:40.947Z,3.20
2022-11-10T21:59:26.291Z,3.17
2022-11-10T22:02:11.461Z,4.00
2022-11-10T22:04:56.592Z,3.60
2022-11-10T22:07:41.685Z,4.13
2022-11-10T22:10:45.521Z,3.20
2022-11-10T22:13:49.686Z,7.70
2022-11-10T22:16:53.475Z,4.60
2022-11-10T22:19:38.743Z,3.53
2022-11-10T22:22:23.962Z,3.43
2022-11-10T22:25:09.176Z,3.53
2022-11-10T22:27:54.325Z,3.13
2022-11-10T22:30:39.894Z,3.60
2022-11-10T22:33:27.803Z,3.53
2022-11-10T22:36:14.312Z,3.40
2022-11-10T22:39:03.331Z,3.40
2022-11-10T22:42:07.824Z,3.37
2022-11-10T22:44:53.042Z,3.70
2022-11-10T22:47:57.035Z,3.97
2022-11-10T22:50:42.222Z,3.60
2022-11-10T22:53:28.037Z,3.30
2022-11-10T22:56:13.236Z,3.57
2022-11-10T22:59:00.256Z,3.47
2022-11-10T23:01:46.050Z,3.37
2022-11-10T23:04:31.348Z,3.17
2022-11-10T23:07:16.341Z,3.47
2022-11-10T23:10:01.595Z,3.50
2022-11-10T23:12:46.531Z,3.07
2022-11-10T23:15:34.633Z,3.23
2022-11-10T23:18:20.103Z,7.70
2022-11-10T23:21:06.907Z,3.77
2022-11-10T23:23:53.731Z,3.40
2022-11-10T23:26:39.001Z,7.10
2022-11-10T23:29:23.995Z,3.93
2022-11-10T23:32:09.198Z,3.40
2022-11-10T23:34:54.332Z,3.50
2022-11-10T23:37:39.128Z,4.70
2022-11-10T23:40:24.067Z,3.58
2022-11-10T23:43:09.049Z,3.80
2022-11-10T23:46:06.363Z,4.00
2022-11-10T23:48:51.958Z,3.50
2022-11-10T23:51:37.016Z,3.50
2022-11-10T23:54:22.152Z,3.67
2022-11-10T23:57:07.472Z,3.07
2022-11-10T23:59:52.649Z,3.57
